Hauptseite
METAR-TAF:

METAR-TAF

Flughäfen :

Flughafen Sultan Syarif Kasim II

Pekanbaru, Indonesien

Breite: 00-28N, Länge: 101-27E, Höhe: 31 m

Beobachtung

Neuester Wetterbericht von vor 35 Minuten, um 17:00 UTC
Wind 6 kt aus Süd/Südwest
Temperatur 24°C
Luftfeuchtigkeit 94%
Luftdruck 1010 hPa
Sichtweite: 8000 m
Leicht bewölkt in der Höhe von 1400 ft

METAR: WIBB 181700Z 20006KT 8000 FEW014 24/23 Q1010 NOSIG

Zeit: 00:35 (17:35 UTC)


TAF: fehlend

Wetterbeobachtungen und Prognosen von mehr als 4000 Flughäfen (METAR und TAF Bericht).

Die verfügbaren Stationen werden durch gelbe und rote Markierungen auf der Karte dargestellt.

Führen Sie die Maus auf sie, um den Namen der Station zu sehen.

Darauf klicken, um die Beobachtung von Wetterbeobachtungen und Prognosen zu sehen.

Um die Karte zu ändern : klicken Sie auf den grünen Tasten mit einem schwarzen Kreuz Zum Vergrößern, auf den grünen Button mit einem Gedankenstrich zu verkleinern, oder auf die grünen Pfeile für benachbarte Karten.


METAR-TAF: